sensor_id;sensor_type;location;lat;lon;timestamp;P1;durP1;ratioP1;P2;durP2;ratioP2
4272;SDS011;63887;53.656;9.810;2022-11-30T00:01:56;143.13;;;54.47;;
4272;SDS011;63887;53.656;9.810;2022-11-30T00:04:23;125.68;;;52.10;;
4272;SDS011;63887;53.656;9.810;2022-11-30T00:06:50;148.20;;;51.85;;
4272;SDS011;63887;53.656;9.810;2022-11-30T00:09:20;136.15;;;54.08;;
4272;SDS011;63887;53.656;9.810;2022-11-30T00:11:47;137.88;;;52.90;;
4272;SDS011;63887;53.656;9.810;2022-11-30T00:14:13;132.57;;;51.83;;
4272;SDS011;63887;53.656;9.810;2022-11-30T00:16:39;129.63;;;51.67;;
4272;SDS011;63887;53.656;9.810;2022-11-30T00:19:05;118.00;;;49.00;;
4272;SDS011;63887;53.656;9.810;2022-11-30T00:21:32;134.00;;;53.28;;
4272;SDS011;63887;53.656;9.810;2022-11-30T00:23:59;130.32;;;52.58;;
4272;SDS011;63887;53.656;9.810;2022-11-30T00:26:25;164.15;;;54.88;;
4272;SDS011;63887;53.656;9.810;2022-11-30T00:28:52;129.93;;;52.45;;
4272;SDS011;63887;53.656;9.810;2022-11-30T00:31:18;155.23;;;54.70;;
4272;SDS011;63887;53.656;9.810;2022-11-30T00:33:47;139.18;;;56.80;;
4272;SDS011;63887;53.656;9.810;2022-11-30T00:36:14;148.88;;;54.90;;
4272;SDS011;63887;53.656;9.810;2022-11-30T00:38:41;133.60;;;52.10;;
4272;SDS011;63887;53.656;9.810;2022-11-30T00:41:09;138.15;;;54.30;;
4272;SDS011;63887;53.656;9.810;2022-11-30T00:43:35;141.32;;;55.95;;
4272;SDS011;63887;53.656;9.810;2022-11-30T00:46:02;147.07;;;53.57;;
4272;SDS011;63887;53.656;9.810;2022-11-30T00:48:28;147.90;;;54.50;;
4272;SDS011;63887;53.656;9.810;2022-11-30T00:50:54;135.50;;;54.37;;
4272;SDS011;63887;53.656;9.810;2022-11-30T00:53:21;127.60;;;51.20;;
4272;SDS011;63887;53.656;9.810;2022-11-30T00:55:47;144.80;;;55.55;;
4272;SDS011;63887;53.656;9.810;2022-11-30T00:58:15;135.80;;;51.53;;
4272;SDS011;63887;53.656;9.810;2022-11-30T01:00:41;132.18;;;52.67;;
4272;SDS011;63887;53.656;9.810;2022-11-30T01:03:08;122.05;;;54.25;;
4272;SDS011;63887;53.656;9.810;2022-11-30T01:05:34;128.27;;;55.15;;
4272;SDS011;63887;53.656;9.810;2022-11-30T01:08:02;133.98;;;54.38;;
4272;SDS011;63887;53.656;9.810;2022-11-30T01:10:29;140.77;;;55.13;;
4272;SDS011;63887;53.656;9.810;2022-11-30T01:12:55;152.13;;;55.67;;
4272;SDS011;63887;53.656;9.810;2022-11-30T01:15:23;133.77;;;50.35;;
4272;SDS011;63887;53.656;9.810;2022-11-30T01:17:49;145.57;;;55.03;;
4272;SDS011;63887;53.656;9.810;2022-11-30T01:20:15;150.65;;;56.05;;
4272;SDS011;63887;53.656;9.810;2022-11-30T01:22:42;143.18;;;52.88;;
4272;SDS011;63887;53.656;9.810;2022-11-30T01:25:08;155.73;;;56.57;;
4272;SDS011;63887;53.656;9.810;2022-11-30T01:27:35;144.32;;;53.63;;
4272;SDS011;63887;53.656;9.810;2022-11-30T01:30:01;138.98;;;54.88;;
4272;SDS011;63887;53.656;9.810;2022-11-30T01:32:30;135.35;;;56.10;;
4272;SDS011;63887;53.656;9.810;2022-11-30T01:34:56;160.43;;;55.67;;
4272;SDS011;63887;53.656;9.810;2022-11-30T01:37:22;138.25;;;53.08;;
4272;SDS011;63887;53.656;9.810;2022-11-30T01:39:49;150.20;;;53.10;;
4272;SDS011;63887;53.656;9.810;2022-11-30T01:42:17;141.55;;;53.40;;
4272;SDS011;63887;53.656;9.810;2022-11-30T01:44:48;144.60;;;56.10;;
4272;SDS011;63887;53.656;9.810;2022-11-30T01:47:15;145.35;;;54.40;;
4272;SDS011;63887;53.656;9.810;2022-11-30T01:49:45;149.65;;;52.47;;
4272;SDS011;63887;53.656;9.810;2022-11-30T01:52:14;148.98;;;55.03;;
4272;SDS011;63887;53.656;9.810;2022-11-30T01:54:43;154.32;;;54.80;;
4272;SDS011;63887;53.656;9.810;2022-11-30T01:57:12;154.05;;;54.22;;
4272;SDS011;63887;53.656;9.810;2022-11-30T01:59:39;137.25;;;54.45;;
4272;SDS011;63887;53.656;9.810;2022-11-30T02:02:06;149.70;;;56.28;;
4272;SDS011;63887;53.656;9.810;2022-11-30T02:04:33;129.25;;;52.83;;
4272;SDS011;63887;53.656;9.810;2022-11-30T02:07:02;150.15;;;58.85;;
4272;SDS011;63887;53.656;9.810;2022-11-30T02:09:29;125.07;;;51.88;;
4272;SDS011;63887;53.656;9.810;2022-11-30T02:11:56;154.25;;;56.10;;
4272;SDS011;63887;53.656;9.810;2022-11-30T02:14:26;160.05;;;59.28;;
4272;SDS011;63887;53.656;9.810;2022-11-30T02:16:55;161.57;;;56.72;;
4272;SDS011;63887;53.656;9.810;2022-11-30T02:19:41;147.97;;;53.07;;
4272;SDS011;63887;53.656;9.810;2022-11-30T02:22:13;165.33;;;55.93;;
4272;SDS011;63887;53.656;9.810;2022-11-30T02:24:49;146.63;;;51.63;;
4272;SDS011;63887;53.656;9.810;2022-11-30T02:27:21;153.73;;;56.20;;
4272;SDS011;63887;53.656;9.810;2022-11-30T02:29:53;146.43;;;52.88;;
4272;SDS011;63887;53.656;9.810;2022-11-30T02:32:21;162.88;;;53.55;;
4272;SDS011;63887;53.656;9.810;2022-11-30T02:34:49;164.85;;;56.05;;
4272;SDS011;63887;53.656;9.810;2022-11-30T02:37:17;148.03;;;56.50;;
4272;SDS011;63887;53.656;9.810;2022-11-30T02:39:43;148.98;;;55.20;;
4272;SDS011;63887;53.656;9.810;2022-11-30T02:42:09;149.65;;;56.38;;
4272;SDS011;63887;53.656;9.810;2022-11-30T02:44:36;156.05;;;55.78;;
4272;SDS011;63887;53.656;9.810;2022-11-30T02:47:06;155.23;;;52.70;;
4272;SDS011;63887;53.656;9.810;2022-11-30T02:49:36;161.98;;;55.95;;
4272;SDS011;63887;53.656;9.810;2022-11-30T02:52:06;138.55;;;53.85;;
4272;SDS011;63887;53.656;9.810;2022-11-30T02:54:34;149.80;;;52.30;;
4272;SDS011;63887;53.656;9.810;2022-11-30T02:57:00;150.90;;;54.92;;
4272;SDS011;63887;53.656;9.810;2022-11-30T02:59:26;147.77;;;53.63;;
4272;SDS011;63887;53.656;9.810;2022-11-30T03:01:53;161.70;;;54.25;;
4272;SDS011;63887;53.656;9.810;2022-11-30T03:04:20;158.75;;;57.95;;
4272;SDS011;63887;53.656;9.810;2022-11-30T03:06:47;143.82;;;54.03;;
4272;SDS011;63887;53.656;9.810;2022-11-30T03:09:13;157.95;;;57.15;;
4272;SDS011;63887;53.656;9.810;2022-11-30T03:11:39;126.45;;;52.63;;
4272;SDS011;63887;53.656;9.810;2022-11-30T03:14:05;158.02;;;54.50;;
4272;SDS011;63887;53.656;9.810;2022-11-30T03:16:32;137.02;;;54.30;;
4272;SDS011;63887;53.656;9.810;2022-11-30T03:18:58;152.47;;;58.57;;
4272;SDS011;63887;53.656;9.810;2022-11-30T03:21:26;137.43;;;54.67;;
4272;SDS011;63887;53.656;9.810;2022-11-30T03:23:53;148.10;;;56.47;;
4272;SDS011;63887;53.656;9.810;2022-11-30T03:26:19;145.02;;;54.45;;
4272;SDS011;63887;53.656;9.810;2022-11-30T03:28:45;134.37;;;52.43;;
4272;SDS011;63887;53.656;9.810;2022-11-30T03:31:12;147.52;;;55.67;;
4272;SDS011;63887;53.656;9.810;2022-11-30T03:33:39;139.05;;;52.20;;
4272;SDS011;63887;53.656;9.810;2022-11-30T03:36:06;134.18;;;54.00;;
4272;SDS011;63887;53.656;9.810;2022-11-30T03:38:34;144.02;;;53.58;;
4272;SDS011;63887;53.656;9.810;2022-11-30T03:41:00;145.63;;;55.92;;
4272;SDS011;63887;53.656;9.810;2022-11-30T03:43:27;139.50;;;53.78;;
4272;SDS011;63887;53.656;9.810;2022-11-30T03:45:53;135.75;;;50.80;;
4272;SDS011;63887;53.656;9.810;2022-11-30T03:48:19;130.07;;;51.47;;
4272;SDS011;63887;53.656;9.810;2022-11-30T03:50:46;143.50;;;53.08;;
4272;SDS011;63887;53.656;9.810;2022-11-30T03:53:14;144.15;;;53.95;;
4272;SDS011;63887;53.656;9.810;2022-11-30T03:55:41;143.57;;;55.65;;
4272;SDS011;63887;53.656;9.810;2022-11-30T03:58:07;152.95;;;54.50;;
4272;SDS011;63887;53.656;9.810;2022-11-30T04:00:34;149.07;;;54.10;;
4272;SDS011;63887;53.656;9.810;2022-11-30T04:03:00;166.55;;;57.90;;
4272;SDS011;63887;53.656;9.810;2022-11-30T04:05:27;165.45;;;55.83;;
4272;SDS011;63887;53.656;9.810;2022-11-30T04:07:53;154.73;;;53.78;;
4272;SDS011;63887;53.656;9.810;2022-11-30T04:10:19;141.50;;;52.58;;
4272;SDS011;63887;53.656;9.810;2022-11-30T04:12:49;152.32;;;55.75;;
4272;SDS011;63887;53.656;9.810;2022-11-30T04:15:15;148.13;;;53.38;;
4272;SDS011;63887;53.656;9.810;2022-11-30T04:17:41;177.52;;;54.80;;
4272;SDS011;63887;53.656;9.810;2022-11-30T04:20:08;163.10;;;54.13;;
4272;SDS011;63887;53.656;9.810;2022-11-30T04:22:35;163.93;;;57.85;;
4272;SDS011;63887;53.656;9.810;2022-11-30T04:25:01;151.90;;;54.80;;
4272;SDS011;63887;53.656;9.810;2022-11-30T04:27:28;166.23;;;55.05;;
4272;SDS011;63887;53.656;9.810;2022-11-30T04:29:55;137.18;;;53.35;;
4272;SDS011;63887;53.656;9.810;2022-11-30T04:32:22;174.75;;;55.75;;
4272;SDS011;63887;53.656;9.810;2022-11-30T04:34:48;167.75;;;54.33;;
4272;SDS011;63887;53.656;9.810;2022-11-30T04:37:14;170.35;;;59.88;;
4272;SDS011;63887;53.656;9.810;2022-11-30T04:39:40;171.77;;;56.83;;
4272;SDS011;63887;53.656;9.810;2022-11-30T04:42:07;137.85;;;53.88;;
4272;SDS011;63887;53.656;9.810;2022-11-30T04:44:33;162.75;;;56.60;;
4272;SDS011;63887;53.656;9.810;2022-11-30T04:47:01;174.25;;;56.30;;
4272;SDS011;63887;53.656;9.810;2022-11-30T04:49:27;175.93;;;57.42;;
4272;SDS011;63887;53.656;9.810;2022-11-30T04:51:53;169.63;;;56.85;;
4272;SDS011;63887;53.656;9.810;2022-11-30T04:54:20;163.32;;;55.13;;
4272;SDS011;63887;53.656;9.810;2022-11-30T04:56:46;168.40;;;56.30;;
4272;SDS011;63887;53.656;9.810;2022-11-30T04:59:12;183.95;;;57.20;;
4272;SDS011;63887;53.656;9.810;2022-11-30T05:01:39;162.07;;;54.08;;
4272;SDS011;63887;53.656;9.810;2022-11-30T05:04:06;173.48;;;55.92;;
4272;SDS011;63887;53.656;9.810;2022-11-30T05:06:32;165.82;;;57.25;;
4272;SDS011;63887;53.656;9.810;2022-11-30T05:08:59;184.02;;;59.13;;
4272;SDS011;63887;53.656;9.810;2022-11-30T05:11:25;167.20;;;57.90;;
4272;SDS011;63887;53.656;9.810;2022-11-30T05:13:51;157.18;;;54.00;;
4272;SDS011;63887;53.656;9.810;2022-11-30T05:16:18;165.20;;;56.30;;
4272;SDS011;63887;53.656;9.810;2022-11-30T05:18:44;168.73;;;54.28;;
4272;SDS011;63887;53.656;9.810;2022-11-30T05:21:12;172.57;;;57.35;;
4272;SDS011;63887;53.656;9.810;2022-11-30T05:23:38;190.75;;;54.47;;
4272;SDS011;63887;53.656;9.810;2022-11-30T05:26:04;173.85;;;56.13;;
4272;SDS011;63887;53.656;9.810;2022-11-30T05:28:30;176.80;;;54.13;;
4272;SDS011;63887;53.656;9.810;2022-11-30T05:31:00;190.32;;;57.03;;
4272;SDS011;63887;53.656;9.810;2022-11-30T05:33:27;157.32;;;54.15;;
4272;SDS011;63887;53.656;9.810;2022-11-30T05:35:53;162.13;;;56.93;;
4272;SDS011;63887;53.656;9.810;2022-11-30T05:38:21;187.90;;;58.78;;
4272;SDS011;63887;53.656;9.810;2022-11-30T05:40:47;194.50;;;58.63;;
4272;SDS011;63887;53.656;9.810;2022-11-30T05:43:13;175.20;;;58.05;;
4272;SDS011;63887;53.656;9.810;2022-11-30T05:45:40;171.20;;;54.88;;
4272;SDS011;63887;53.656;9.810;2022-11-30T05:48:06;177.02;;;58.08;;
4272;SDS011;63887;53.656;9.810;2022-11-30T05:50:32;176.45;;;55.65;;
4272;SDS011;63887;53.656;9.810;2022-11-30T05:52:59;162.75;;;56.63;;
4272;SDS011;63887;53.656;9.810;2022-11-30T05:55:27;177.05;;;60.72;;
4272;SDS011;63887;53.656;9.810;2022-11-30T05:57:54;189.82;;;57.88;;
4272;SDS011;63887;53.656;9.810;2022-11-30T06:00:20;156.40;;;54.70;;
4272;SDS011;63887;53.656;9.810;2022-11-30T06:02:47;163.00;;;53.95;;
4272;SDS011;63887;53.656;9.810;2022-11-30T06:05:13;169.95;;;56.28;;
4272;SDS011;63887;53.656;9.810;2022-11-30T06:07:39;192.20;;;62.00;;
4272;SDS011;63887;53.656;9.810;2022-11-30T06:10:06;163.57;;;57.88;;
4272;SDS011;63887;53.656;9.810;2022-11-30T06:12:34;160.98;;;56.45;;
4272;SDS011;63887;53.656;9.810;2022-11-30T06:15:00;156.88;;;54.42;;
4272;SDS011;63887;53.656;9.810;2022-11-30T06:17:27;164.52;;;54.28;;
4272;SDS011;63887;53.656;9.810;2022-11-30T06:19:53;172.80;;;55.42;;
4272;SDS011;63887;53.656;9.810;2022-11-30T06:22:19;161.18;;;56.50;;
4272;SDS011;63887;53.656;9.810;2022-11-30T06:24:46;148.43;;;51.58;;
4272;SDS011;63887;53.656;9.810;2022-11-30T06:27:12;177.25;;;55.92;;
4272;SDS011;63887;53.656;9.810;2022-11-30T06:29:40;173.60;;;55.22;;
4272;SDS011;63887;53.656;9.810;2022-11-30T06:32:06;189.77;;;59.47;;
4272;SDS011;63887;53.656;9.810;2022-11-30T06:34:32;169.65;;;57.60;;
4272;SDS011;63887;53.656;9.810;2022-11-30T06:36:59;160.90;;;56.97;;
4272;SDS011;63887;53.656;9.810;2022-11-30T06:39:25;162.25;;;55.38;;
4272;SDS011;63887;53.656;9.810;2022-11-30T06:41:51;156.35;;;56.58;;
4272;SDS011;63887;53.656;9.810;2022-11-30T06:44:18;155.68;;;53.85;;
4272;SDS011;63887;53.656;9.810;2022-11-30T06:46:48;187.32;;;55.10;;
4272;SDS011;63887;53.656;9.810;2022-11-30T06:49:15;157.68;;;53.70;;
4272;SDS011;63887;53.656;9.810;2022-11-30T06:51:41;163.80;;;54.35;;
4272;SDS011;63887;53.656;9.810;2022-11-30T06:54:07;140.88;;;54.45;;
4272;SDS011;63887;53.656;9.810;2022-11-30T06:56:34;180.30;;;55.95;;
4272;SDS011;63887;53.656;9.810;2022-11-30T06:59:00;169.68;;;56.78;;
4272;SDS011;63887;53.656;9.810;2022-11-30T07:01:26;170.70;;;59.70;;
4272;SDS011;63887;53.656;9.810;2022-11-30T07:03:54;170.82;;;58.88;;
4272;SDS011;63887;53.656;9.810;2022-11-30T07:06:20;182.27;;;61.25;;
4272;SDS011;63887;53.656;9.810;2022-11-30T07:08:47;181.88;;;61.58;;
4272;SDS011;63887;53.656;9.810;2022-11-30T07:11:13;177.57;;;57.75;;
4272;SDS011;63887;53.656;9.810;2022-11-30T07:13:40;196.40;;;61.05;;
4272;SDS011;63887;53.656;9.810;2022-11-30T07:16:07;184.38;;;64.03;;
4272;SDS011;63887;53.656;9.810;2022-11-30T07:18:34;176.77;;;57.35;;
4272;SDS011;63887;53.656;9.810;2022-11-30T07:21:03;175.23;;;58.83;;
4272;SDS011;63887;53.656;9.810;2022-11-30T07:23:29;159.73;;;56.85;;
4272;SDS011;63887;53.656;9.810;2022-11-30T07:26:12;157.43;;;54.08;;
4272;SDS011;63887;53.656;9.810;2022-11-30T07:28:39;183.02;;;58.72;;
4272;SDS011;63887;53.656;9.810;2022-11-30T07:31:17;179.70;;;62.70;;
4272;SDS011;63887;53.656;9.810;2022-11-30T07:33:44;184.70;;;61.55;;
4272;SDS011;63887;53.656;9.810;2022-11-30T07:36:11;194.07;;;56.93;;
4272;SDS011;63887;53.656;9.810;2022-11-30T07:38:38;158.57;;;55.58;;
4272;SDS011;63887;53.656;9.810;2022-11-30T07:41:04;173.80;;;57.28;;
4272;SDS011;63887;53.656;9.810;2022-11-30T07:43:31;164.88;;;57.65;;
4272;SDS011;63887;53.656;9.810;2022-11-30T07:45:57;180.85;;;57.05;;
4272;SDS011;63887;53.656;9.810;2022-11-30T07:48:24;144.30;;;55.58;;
4272;SDS011;63887;53.656;9.810;2022-11-30T07:50:50;158.20;;;55.50;;
4272;SDS011;63887;53.656;9.810;2022-11-30T07:53:18;193.30;;;58.40;;
4272;SDS011;63887;53.656;9.810;2022-11-30T07:55:44;169.45;;;57.53;;
4272;SDS011;63887;53.656;9.810;2022-11-30T07:58:10;159.15;;;55.85;;
4272;SDS011;63887;53.656;9.810;2022-11-30T08:00:37;184.00;;;58.17;;
4272;SDS011;63887;53.656;9.810;2022-11-30T08:03:03;176.27;;;58.03;;
4272;SDS011;63887;53.656;9.810;2022-11-30T08:05:30;184.82;;;60.13;;
4272;SDS011;63887;53.656;9.810;2022-11-30T08:07:56;180.87;;;61.07;;
4272;SDS011;63887;53.656;9.810;2022-11-30T08:10:24;196.30;;;59.15;;
4272;SDS011;63887;53.656;9.810;2022-11-30T08:12:51;162.57;;;58.83;;
4272;SDS011;63887;53.656;9.810;2022-11-30T08:15:18;182.15;;;57.55;;
4272;SDS011;63887;53.656;9.810;2022-11-30T08:17:46;184.45;;;58.60;;
4272;SDS011;63887;53.656;9.810;2022-11-30T08:20:16;167.10;;;56.27;;
4272;SDS011;63887;53.656;9.810;2022-11-30T08:22:43;164.57;;;56.97;;
4272;SDS011;63887;53.656;9.810;2022-11-30T08:25:11;187.10;;;56.10;;
4272;SDS011;63887;53.656;9.810;2022-11-30T08:27:38;164.40;;;57.17;;
4272;SDS011;63887;53.656;9.810;2022-11-30T08:30:06;183.02;;;58.67;;
4272;SDS011;63887;53.656;9.810;2022-11-30T08:32:33;160.93;;;57.83;;
4272;SDS011;63887;53.656;9.810;2022-11-30T08:34:59;187.02;;;59.90;;
4272;SDS011;63887;53.656;9.810;2022-11-30T08:37:25;163.93;;;54.80;;
4272;SDS011;63887;53.656;9.810;2022-11-30T08:39:54;178.38;;;62.05;;
4272;SDS011;63887;53.656;9.810;2022-11-30T08:42:20;163.15;;;58.70;;
4272;SDS011;63887;53.656;9.810;2022-11-30T08:44:48;186.80;;;61.23;;
4272;SDS011;63887;53.656;9.810;2022-11-30T08:47:14;144.45;;;54.42;;
4272;SDS011;63887;53.656;9.810;2022-11-30T08:49:41;164.95;;;57.90;;
4272;SDS011;63887;53.656;9.810;2022-11-30T08:52:07;140.73;;;54.67;;
4272;SDS011;63887;53.656;9.810;2022-11-30T08:54:33;167.50;;;53.35;;
4272;SDS011;63887;53.656;9.810;2022-11-30T08:57:03;165.27;;;56.00;;
4272;SDS011;63887;53.656;9.810;2022-11-30T08:59:30;157.93;;;56.40;;
4272;SDS011;63887;53.656;9.810;2022-11-30T09:01:58;159.93;;;56.10;;
4272;SDS011;63887;53.656;9.810;2022-11-30T09:04:25;160.52;;;53.65;;
4272;SDS011;63887;53.656;9.810;2022-11-30T09:06:52;156.55;;;56.35;;
4272;SDS011;63887;53.656;9.810;2022-11-30T09:09:22;178.80;;;58.97;;
4272;SDS011;63887;53.656;9.810;2022-11-30T09:11:49;174.77;;;58.83;;
4272;SDS011;63887;53.656;9.810;2022-11-30T09:14:15;171.63;;;56.42;;
4272;SDS011;63887;53.656;9.810;2022-11-30T09:16:41;171.82;;;60.00;;
4272;SDS011;63887;53.656;9.810;2022-11-30T09:19:09;170.82;;;56.17;;
4272;SDS011;63887;53.656;9.810;2022-11-30T09:21:35;168.88;;;56.03;;
4272;SDS011;63887;53.656;9.810;2022-11-30T09:24:01;169.82;;;55.50;;
4272;SDS011;63887;53.656;9.810;2022-11-30T09:26:29;171.30;;;55.58;;
4272;SDS011;63887;53.656;9.810;2022-11-30T09:28:55;175.65;;;60.38;;
4272;SDS011;63887;53.656;9.810;2022-11-30T09:31:22;157.10;;;54.85;;
4272;SDS011;63887;53.656;9.810;2022-11-30T09:33:49;153.68;;;54.85;;
4272;SDS011;63887;53.656;9.810;2022-11-30T09:36:18;141.57;;;55.58;;
4272;SDS011;63887;53.656;9.810;2022-11-30T09:38:45;148.95;;;54.88;;
4272;SDS011;63887;53.656;9.810;2022-11-30T09:41:21;149.00;;;54.75;;
4272;SDS011;63887;53.656;9.810;2022-11-30T09:43:52;146.65;;;53.55;;
4272;SDS011;63887;53.656;9.810;2022-11-30T09:46:22;148.73;;;53.40;;
4272;SDS011;63887;53.656;9.810;2022-11-30T09:48:52;144.85;;;54.67;;
4272;SDS011;63887;53.656;9.810;2022-11-30T09:51:21;138.90;;;51.60;;
4272;SDS011;63887;53.656;9.810;2022-11-30T09:53:50;143.63;;;53.53;;
4272;SDS011;63887;53.656;9.810;2022-11-30T09:56:19;116.70;;;47.47;;
4272;SDS011;63887;53.656;9.810;2022-11-30T09:58:47;135.07;;;53.75;;
4272;SDS011;63887;53.656;9.810;2022-11-30T10:01:16;134.70;;;52.00;;
4272;SDS011;63887;53.656;9.810;2022-11-30T10:03:43;134.57;;;50.08;;
4272;SDS011;63887;53.656;9.810;2022-11-30T10:06:10;132.87;;;49.33;;
4272;SDS011;63887;53.656;9.810;2022-11-30T10:08:41;132.32;;;50.70;;
4272;SDS011;63887;53.656;9.810;2022-11-30T10:11:14;127.30;;;49.03;;
4272;SDS011;63887;53.656;9.810;2022-11-30T10:13:47;117.97;;;48.33;;
4272;SDS011;63887;53.656;9.810;2022-11-30T10:16:20;116.03;;;49.07;;
4272;SDS011;63887;53.656;9.810;2022-11-30T10:18:50;127.53;;;49.10;;
4272;SDS011;63887;53.656;9.810;2022-11-30T10:21:23;126.95;;;49.13;;
4272;SDS011;63887;53.656;9.810;2022-11-30T10:23:58;123.05;;;46.42;;
4272;SDS011;63887;53.656;9.810;2022-11-30T10:26:31;125.47;;;50.13;;
4272;SDS011;63887;53.656;9.810;2022-11-30T10:28:59;115.43;;;46.63;;
4272;SDS011;63887;53.656;9.810;2022-11-30T10:31:29;116.90;;;49.20;;
4272;SDS011;63887;53.656;9.810;2022-11-30T10:34:00;108.72;;;44.97;;
4272;SDS011;63887;53.656;9.810;2022-11-30T10:36:32;108.07;;;49.97;;
4272;SDS011;63887;53.656;9.810;2022-11-30T10:39:01;130.25;;;50.05;;
4272;SDS011;63887;53.656;9.810;2022-11-30T10:41:30;95.07;;;45.25;;
4272;SDS011;63887;53.656;9.810;2022-11-30T10:43:59;113.10;;;45.97;;
4272;SDS011;63887;53.656;9.810;2022-11-30T10:46:30;102.40;;;47.27;;
4272;SDS011;63887;53.656;9.810;2022-11-30T10:48:58;120.15;;;47.75;;
4272;SDS011;63887;53.656;9.810;2022-11-30T10:51:28;126.43;;;50.75;;
4272;SDS011;63887;53.656;9.810;2022-11-30T10:53:54;115.55;;;49.30;;
4272;SDS011;63887;53.656;9.810;2022-11-30T10:56:23;117.50;;;50.53;;
4272;SDS011;63887;53.656;9.810;2022-11-30T10:58:52;105.13;;;47.75;;
4272;SDS011;63887;53.656;9.810;2022-11-30T11:01:33;109.55;;;44.90;;
4272;SDS011;63887;53.656;9.810;2022-11-30T11:04:06;96.43;;;46.85;;
4272;SDS011;63887;53.656;9.810;2022-11-30T11:06:33;100.57;;;44.97;;
4272;SDS011;63887;53.656;9.810;2022-11-30T11:09:00;88.90;;;43.10;;
4272;SDS011;63887;53.656;9.810;2022-11-30T11:11:47;100.77;;;43.33;;
4272;SDS011;63887;53.656;9.810;2022-11-30T11:14:18;98.90;;;42.23;;
4272;SDS011;63887;53.656;9.810;2022-11-30T11:19:31;95.87;;;43.27;;
4272;SDS011;63887;53.656;9.810;2022-11-30T11:21:58;106.50;;;45.60;;
4272;SDS011;63887;53.656;9.810;2022-11-30T11:24:25;116.57;;;50.10;;
4272;SDS011;63887;53.656;9.810;2022-11-30T11:26:54;127.33;;;47.70;;
4272;SDS011;63887;53.656;9.810;2022-11-30T11:29:21;121.40;;;48.50;;
4272;SDS011;63887;53.656;9.810;2022-11-30T11:32:03;116.35;;;48.83;;
4272;SDS011;63887;53.656;9.810;2022-11-30T11:34:31;107.32;;;49.15;;
4272;SDS011;63887;53.656;9.810;2022-11-30T11:37:05;113.55;;;49.22;;
4272;SDS011;63887;53.656;9.810;2022-11-30T11:39:32;118.63;;;49.07;;
4272;SDS011;63887;53.656;9.810;2022-11-30T11:41:59;117.33;;;48.50;;
4272;SDS011;63887;53.656;9.810;2022-11-30T11:44:26;131.40;;;52.38;;
4272;SDS011;63887;53.656;9.810;2022-11-30T11:46:53;123.60;;;50.50;;
4272;SDS011;63887;53.656;9.810;2022-11-30T11:49:21;107.63;;;48.28;;
4272;SDS011;63887;53.656;9.810;2022-11-30T11:51:49;113.83;;;47.10;;
4272;SDS011;63887;53.656;9.810;2022-11-30T11:54:24;121.33;;;50.67;;
4272;SDS011;63887;53.656;9.810;2022-11-30T11:56:53;135.63;;;52.45;;
4272;SDS011;63887;53.656;9.810;2022-11-30T11:59:24;123.53;;;51.60;;
4272;SDS011;63887;53.656;9.810;2022-11-30T12:01:56;127.30;;;51.17;;
4272;SDS011;63887;53.656;9.810;2022-11-30T12:04:30;115.40;;;51.08;;
4272;SDS011;63887;53.656;9.810;2022-11-30T12:06:58;127.87;;;53.70;;
4272;SDS011;63887;53.656;9.810;2022-11-30T12:09:27;108.43;;;46.78;;
4272;SDS011;63887;53.656;9.810;2022-11-30T12:11:54;116.15;;;49.10;;
4272;SDS011;63887;53.656;9.810;2022-11-30T12:14:23;120.65;;;50.05;;
4272;SDS011;63887;53.656;9.810;2022-11-30T12:16:59;118.73;;;48.40;;
4272;SDS011;63887;53.656;9.810;2022-11-30T12:19:31;111.73;;;49.50;;
4272;SDS011;63887;53.656;9.810;2022-11-30T12:22:01;112.27;;;49.47;;
4272;SDS011;63887;53.656;9.810;2022-11-30T12:24:32;111.28;;;50.20;;
4272;SDS011;63887;53.656;9.810;2022-11-30T12:27:01;125.75;;;51.28;;
4272;SDS011;63887;53.656;9.810;2022-11-30T12:29:36;107.38;;;47.75;;
4272;SDS011;63887;53.656;9.810;2022-11-30T12:32:10;110.70;;;50.83;;
4272;SDS011;63887;53.656;9.810;2022-11-30T12:34:46;115.38;;;49.20;;
4272;SDS011;63887;53.656;9.810;2022-11-30T12:37:15;101.15;;;47.42;;
4272;SDS011;63887;53.656;9.810;2022-11-30T12:39:46;108.53;;;45.38;;
4272;SDS011;63887;53.656;9.810;2022-11-30T12:42:16;98.88;;;44.28;;
4272;SDS011;63887;53.656;9.810;2022-11-30T12:44:48;110.97;;;46.78;;
4272;SDS011;63887;53.656;9.810;2022-11-30T12:47:25;99.75;;;44.72;;
4272;SDS011;63887;53.656;9.810;2022-11-30T12:49:56;105.18;;;46.53;;
4272;SDS011;63887;53.656;9.810;2022-11-30T12:52:28;110.93;;;49.60;;
4272;SDS011;63887;53.656;9.810;2022-11-30T12:54:56;94.78;;;46.08;;
4272;SDS011;63887;53.656;9.810;2022-11-30T12:57:25;105.50;;;47.13;;
4272;SDS011;63887;53.656;9.810;2022-11-30T12:59:56;98.38;;;45.40;;
4272;SDS011;63887;53.656;9.810;2022-11-30T13:02:37;94.43;;;46.10;;
4272;SDS011;63887;53.656;9.810;2022-11-30T13:05:06;93.35;;;45.38;;
4272;SDS011;63887;53.656;9.810;2022-11-30T13:07:33;99.00;;;46.10;;
4272;SDS011;63887;53.656;9.810;2022-11-30T13:10:04;97.87;;;47.60;;
4272;SDS011;63887;53.656;9.810;2022-11-30T13:12:33;92.97;;;47.53;;
4272;SDS011;63887;53.656;9.810;2022-11-30T13:15:02;94.90;;;44.90;;
4272;SDS011;63887;53.656;9.810;2022-11-30T13:17:30;87.20;;;43.40;;
4272;SDS011;63887;53.656;9.810;2022-11-30T13:19:57;94.30;;;44.60;;
4272;SDS011;63887;53.656;9.810;2022-11-30T13:22:35;86.97;;;41.47;;
4272;SDS011;63887;53.656;9.810;2022-11-30T13:25:07;82.10;;;40.22;;
4272;SDS011;63887;53.656;9.810;2022-11-30T13:27:38;89.15;;;41.95;;
4272;SDS011;63887;53.656;9.810;2022-11-30T13:30:15;93.40;;;42.55;;
4272;SDS011;63887;53.656;9.810;2022-11-30T13:32:42;91.30;;;42.83;;
4272;SDS011;63887;53.656;9.810;2022-11-30T13:37:59;82.83;;;41.03;;
4272;SDS011;63887;53.656;9.810;2022-11-30T13:40:26;90.20;;;43.40;;
4272;SDS011;63887;53.656;9.810;2022-11-30T13:42:53;78.43;;;40.72;;
4272;SDS011;63887;53.656;9.810;2022-11-30T13:45:26;96.27;;;45.10;;
4272;SDS011;63887;53.656;9.810;2022-11-30T13:47:52;82.70;;;41.40;;
4272;SDS011;63887;53.656;9.810;2022-11-30T13:50:21;89.50;;;46.60;;
4272;SDS011;63887;53.656;9.810;2022-11-30T13:53:08;101.63;;;48.30;;
4272;SDS011;63887;53.656;9.810;2022-11-30T13:55:49;90.30;;;41.85;;
4272;SDS011;63887;53.656;9.810;2022-11-30T13:58:16;92.05;;;43.55;;
4272;SDS011;63887;53.656;9.810;2022-11-30T14:00:46;103.30;;;45.85;;
4272;SDS011;63887;53.656;9.810;2022-11-30T14:03:21;83.80;;;42.87;;
4272;SDS011;63887;53.656;9.810;2022-11-30T14:05:48;90.95;;;44.15;;
4272;SDS011;63887;53.656;9.810;2022-11-30T14:08:16;99.65;;;41.83;;
4272;SDS011;63887;53.656;9.810;2022-11-30T14:10:43;88.00;;;45.77;;
4272;SDS011;63887;53.656;9.810;2022-11-30T14:13:26;95.53;;;43.80;;
4272;SDS011;63887;53.656;9.810;2022-11-30T14:15:55;92.28;;;44.92;;
4272;SDS011;63887;53.656;9.810;2022-11-30T14:18:36;94.13;;;46.45;;
4272;SDS011;63887;53.656;9.810;2022-11-30T14:21:11;90.15;;;43.28;;
4272;SDS011;63887;53.656;9.810;2022-11-30T14:23:41;93.40;;;46.78;;
4272;SDS011;63887;53.656;9.810;2022-11-30T14:26:09;96.97;;;46.35;;
4272;SDS011;63887;53.656;9.810;2022-11-30T14:28:37;88.20;;;40.90;;
4272;SDS011;63887;53.656;9.810;2022-11-30T14:31:06;94.75;;;44.17;;
4272;SDS011;63887;53.656;9.810;2022-11-30T14:33:37;91.30;;;42.45;;
4272;SDS011;63887;53.656;9.810;2022-11-30T14:36:04;82.53;;;40.10;;